createdAt,value
2022-12-31T00:01:18.395Z,11.82
2022-12-31T00:03:45.003Z,11.77
2022-12-31T00:06:30.935Z,11.78
2022-12-31T00:09:00.064Z,11.82
2022-12-31T00:11:28.504Z,11.85
2022-12-31T00:13:55.936Z,11.84
2022-12-31T00:16:25.813Z,11.86
2022-12-31T00:18:55.135Z,11.83
2022-12-31T00:21:22.637Z,11.88
2022-12-31T00:23:49.598Z,11.77
2022-12-31T00:26:18.910Z,11.88
2022-12-31T00:28:45.710Z,11.77
2022-12-31T00:31:13.745Z,11.89
2022-12-31T00:33:40.939Z,11.92
2022-12-31T00:36:10.396Z,11.91
2022-12-31T00:38:38.433Z,11.91
2022-12-31T00:41:05.990Z,11.96
2022-12-31T00:43:32.845Z,11.89
2022-12-31T00:46:00.030Z,11.96
2022-12-31T00:48:27.171Z,11.94
2022-12-31T00:50:55.654Z,11.93
2022-12-31T00:53:23.122Z,11.91
2022-12-31T00:55:50.211Z,11.86
2022-12-31T00:58:16.947Z,11.87
2022-12-31T01:00:43.631Z,11.87
2022-12-31T01:03:10.782Z,11.86
2022-12-31T01:05:38.471Z,11.84
2022-12-31T01:08:05.612Z,11.83
2022-12-31T01:10:50.496Z,11.84
2022-12-31T01:13:16.992Z,11.75
2022-12-31T01:15:43.525Z,11.70
2022-12-31T01:18:10.928Z,11.76
2022-12-31T01:20:39.254Z,11.75
2022-12-31T01:23:07.783Z,11.67
2022-12-31T01:25:39.136Z,11.67
2022-12-31T01:28:06.477Z,11.63
2022-12-31T01:30:33.001Z,11.55
2022-12-31T01:32:59.556Z,11.48
2022-12-31T01:35:26.040Z,11.47
2022-12-31T01:37:52.526Z,11.48
2022-12-31T01:40:19.203Z,11.42
2022-12-31T01:42:45.700Z,11.36
2022-12-31T01:45:14.170Z,11.37
2022-12-31T01:47:48.035Z,11.37
2022-12-31T01:50:33.814Z,11.33
2022-12-31T01:53:03.756Z,11.36
2022-12-31T01:55:35.104Z,11.34
2022-12-31T01:58:08.460Z,11.31
2022-12-31T02:00:35.432Z,11.34
2022-12-31T02:03:03.544Z,11.36
2022-12-31T02:05:41.214Z,11.36
2022-12-31T02:08:08.504Z,11.34
2022-12-31T02:10:35.674Z,11.22
2022-12-31T02:13:02.640Z,11.27
2022-12-31T02:16:06.747Z,11.37
2022-12-31T02:18:43.647Z,11.33
2022-12-31T02:21:43.998Z,11.39
2022-12-31T02:24:38.350Z,11.36
2022-12-31T02:27:18.419Z,11.37
2022-12-31T02:29:47.893Z,11.40
2022-12-31T02:32:24.184Z,11.42
2022-12-31T02:35:00.876Z,11.42
2022-12-31T02:37:30.533Z,11.42
2022-12-31T02:39:58.439Z,11.40
2022-12-31T02:42:24.924Z,11.43
2022-12-31T02:44:51.403Z,11.43
2022-12-31T02:47:43.105Z,11.49
2022-12-31T02:50:38.711Z,11.42
2022-12-31T02:53:14.522Z,11.51
2022-12-31T02:56:08.599Z,11.55
2022-12-31T02:59:03.225Z,11.54
2022-12-31T03:01:54.255Z,11.54
2022-12-31T03:04:32.027Z,11.58
2022-12-31T03:07:23.438Z,11.63
2022-12-31T03:09:50.571Z,11.65
2022-12-31T03:12:37.621Z,11.64
2022-12-31T03:15:06.736Z,11.65
2022-12-31T03:17:34.058Z,11.66
2022-12-31T03:20:19.487Z,11.66
2022-12-31T03:22:46.113Z,11.51
2022-12-31T03:25:34.217Z,11.64
2022-12-31T03:28:02.963Z,11.65
2022-12-31T03:30:30.932Z,11.67
2022-12-31T03:32:58.054Z,11.64
2022-12-31T03:35:26.233Z,11.68
2022-12-31T03:37:53.630Z,11.72
2022-12-31T03:40:22.027Z,11.61
2022-12-31T03:42:48.510Z,11.70
2022-12-31T03:45:15.625Z,11.80
2022-12-31T03:47:42.423Z,11.83
2022-12-31T03:50:11.332Z,11.85
2022-12-31T03:52:38.329Z,11.84
2022-12-31T03:55:05.398Z,11.86
2022-12-31T03:57:31.952Z,11.83
2022-12-31T03:59:58.539Z,11.84
2022-12-31T04:02:28.956Z,11.88
2022-12-31T04:04:56.084Z,11.91
2022-12-31T04:07:22.706Z,11.91
2022-12-31T04:09:49.350Z,11.85
2022-12-31T04:12:15.871Z,11.86
2022-12-31T04:14:42.442Z,11.95
2022-12-31T04:17:08.995Z,12.05
2022-12-31T04:19:35.563Z,12.07
2022-12-31T04:22:02.034Z,12.09
2022-12-31T04:24:28.646Z,12.07
2022-12-31T04:26:55.173Z,12.18
2022-12-31T04:29:21.804Z,12.22
2022-12-31T04:31:48.322Z,12.27
2022-12-31T04:34:15.025Z,12.36
2022-12-31T04:36:41.524Z,12.43
2022-12-31T04:39:08.639Z,12.50
2022-12-31T04:41:35.194Z,12.59
2022-12-31T04:44:01.720Z,12.72
2022-12-31T04:46:31.244Z,12.79
2022-12-31T04:48:58.697Z,12.77
2022-12-31T04:51:26.551Z,12.96
2022-12-31T04:53:53.448Z,13.13
2022-12-31T04:56:20.335Z,13.24
2022-12-31T04:58:47.196Z,13.29
2022-12-31T05:01:14.822Z,13.42
2022-12-31T05:03:41.642Z,13.49
2022-12-31T05:06:15.657Z,13.50
2022-12-31T05:08:42.979Z,13.59
2022-12-31T05:11:10.180Z,13.75
2022-12-31T05:13:37.097Z,13.82
2022-12-31T05:16:04.395Z,13.87
2022-12-31T05:18:32.269Z,13.91
2022-12-31T05:20:58.870Z,13.94
2022-12-31T05:23:25.576Z,13.99
2022-12-31T05:25:52.477Z,14.01
2022-12-31T05:28:19.651Z,14.02
2022-12-31T05:30:50.092Z,14.13
2022-12-31T05:33:17.492Z,14.15
2022-12-31T05:35:44.151Z,14.21
2022-12-31T05:38:10.983Z,14.14
2022-12-31T05:40:37.445Z,14.28
2022-12-31T05:43:03.910Z,14.12
2022-12-31T05:45:31.138Z,14.14
2022-12-31T05:47:58.445Z,14.33
2022-12-31T05:50:25.359Z,14.32
2022-12-31T05:52:51.885Z,14.28
2022-12-31T05:55:18.553Z,14.34
2022-12-31T05:57:45.024Z,14.33
2022-12-31T06:00:12.081Z,14.41
2022-12-31T06:02:38.604Z,14.39
2022-12-31T06:05:05.604Z,14.39
2022-12-31T06:07:32.240Z,14.19
2022-12-31T06:09:58.846Z,14.21
2022-12-31T06:12:25.479Z,14.43
2022-12-31T06:14:51.979Z,14.44
2022-12-31T06:17:20.664Z,14.44
2022-12-31T06:19:47.171Z,14.47
2022-12-31T06:22:14.043Z,14.42
2022-12-31T06:24:40.566Z,14.45
2022-12-31T06:27:07.104Z,14.43
2022-12-31T06:29:33.659Z,14.38
2022-12-31T06:32:00.168Z,14.41
2022-12-31T06:34:26.774Z,14.32
2022-12-31T06:36:53.344Z,14.22
2022-12-31T06:39:19.899Z,14.19
2022-12-31T06:41:46.456Z,14.40
2022-12-31T06:44:14.527Z,14.31
2022-12-31T06:46:41.065Z,14.38
2022-12-31T06:49:07.574Z,14.37
2022-12-31T06:51:34.056Z,14.14
2022-12-31T06:54:00.557Z,14.28
2022-12-31T06:56:34.064Z,14.33
2022-12-31T06:59:02.472Z,14.34
2022-12-31T07:01:34.928Z,14.31
2022-12-31T07:04:04.265Z,14.35
2022-12-31T07:06:58.939Z,14.33
2022-12-31T07:09:34.773Z,14.24
2022-12-31T07:12:13.930Z,14.35
2022-12-31T07:14:43.596Z,14.38
2022-12-31T07:17:28.424Z,14.34
2022-12-31T07:20:05.334Z,14.36
2022-12-31T07:22:32.152Z,14.27
2022-12-31T07:24:59.191Z,14.36
2022-12-31T07:27:50.342Z,14.26
2022-12-31T07:30:22.341Z,14.36
2022-12-31T07:33:06.878Z,14.41
2022-12-31T07:36:05.611Z,14.24
2022-12-31T07:38:48.629Z,14.38
2022-12-31T07:41:54.937Z,14.41
2022-12-31T07:44:48.831Z,14.35
2022-12-31T07:47:24.207Z,14.32
2022-12-31T07:49:51.536Z,14.44
2022-12-31T07:52:18.870Z,14.45
2022-12-31T07:54:45.868Z,14.43
2022-12-31T07:57:14.226Z,14.42
2022-12-31T08:00:09.288Z,14.44
2022-12-31T08:03:01.893Z,14.28
2022-12-31T08:05:38.813Z,14.37
2022-12-31T08:08:12.320Z,14.37
2022-12-31T08:10:53.306Z,14.39
2022-12-31T08:13:20.963Z,14.46
2022-12-31T08:15:48.332Z,14.38
2022-12-31T08:18:15.110Z,14.52
2022-12-31T08:21:09.416Z,14.52
2022-12-31T08:24:09.454Z,14.52
2022-12-31T08:26:53.179Z,14.61
2022-12-31T08:29:53.791Z,14.61
2022-12-31T08:32:29.922Z,14.57
2022-12-31T08:35:28.384Z,14.57
2022-12-31T08:38:17.391Z,14.57
2022-12-31T08:41:29.463Z,14.53
2022-12-31T08:44:07.808Z,14.47
2022-12-31T08:46:44.902Z,14.45
2022-12-31T08:49:11.895Z,14.36
2022-12-31T08:51:38.680Z,14.31
2022-12-31T08:54:05.534Z,14.35
2022-12-31T08:56:36.338Z,14.38
2022-12-31T08:59:15.134Z,14.30
2022-12-31T09:01:53.792Z,14.28
2022-12-31T09:04:33.795Z,14.28
2022-12-31T09:07:03.258Z,14.27
2022-12-31T09:10:04.252Z,14.23
2022-12-31T09:12:45.396Z,14.17
2022-12-31T09:15:24.215Z,14.22
2022-12-31T09:17:51.185Z,14.28
2022-12-31T09:20:36.332Z,14.31
2022-12-31T09:23:08.930Z,14.31
2022-12-31T09:25:57.520Z,14.24
2022-12-31T09:28:30.142Z,14.26
2022-12-31T09:31:02.513Z,14.29
2022-12-31T09:33:59.993Z,14.29
2022-12-31T09:36:50.027Z,14.26
2022-12-31T09:39:40.433Z,14.28
2022-12-31T09:42:37.905Z,14.27
2022-12-31T09:45:24.778Z,14.26
2022-12-31T09:48:06.575Z,14.25
2022-12-31T09:51:12.688Z,14.13
2022-12-31T09:53:47.460Z,14.19
2022-12-31T09:56:30.846Z,14.18
2022-12-31T09:59:05.514Z,14.17
2022-12-31T10:01:46.449Z,14.07
2022-12-31T10:04:34.908Z,14.03
2022-12-31T10:07:28.857Z,14.08
2022-12-31T10:10:04.997Z,14.07
2022-12-31T10:13:10.751Z,14.03
2022-12-31T10:16:04.378Z,14.03
2022-12-31T10:18:46.011Z,14.03
2022-12-31T10:21:37.218Z,14.00
2022-12-31T10:24:22.420Z,14.05
2022-12-31T10:26:58.490Z,13.93
2022-12-31T10:29:39.567Z,14.04
2022-12-31T10:32:16.150Z,13.94
2022-12-31T10:34:45.504Z,13.99
2022-12-31T10:37:18.358Z,13.92
2022-12-31T10:40:52.605Z,13.96
2022-12-31T10:43:28.007Z,13.96
2022-12-31T10:46:16.381Z,13.91
2022-12-31T10:49:02.650Z,13.90
2022-12-31T10:52:01.237Z,13.91
2022-12-31T10:55:06.527Z,13.92
2022-12-31T10:57:47.996Z,13.80
2022-12-31T11:00:22.127Z,13.91
2022-12-31T11:03:13.405Z,13.88
2022-12-31T11:06:07.687Z,13.87
2022-12-31T11:09:02.252Z,13.87
2022-12-31T11:11:44.721Z,13.80
2022-12-31T11:14:48.973Z,13.87
2022-12-31T11:17:33.916Z,13.85
2022-12-31T11:20:12.522Z,13.83
2022-12-31T11:22:55.438Z,13.80
2022-12-31T11:25:48.201Z,13.79
2022-12-31T11:28:44.170Z,13.63
2022-12-31T11:31:58.115Z,13.72
2022-12-31T11:34:51.954Z,13.69
2022-12-31T11:37:47.634Z,13.63
2022-12-31T11:40:38.988Z,13.61
2022-12-31T11:43:36.154Z,13.57
2022-12-31T11:46:41.342Z,13.50
2022-12-31T11:49:10.952Z,13.44
2022-12-31T11:51:50.018Z,13.41
2022-12-31T11:54:42.365Z,13.40
2022-12-31T11:57:16.971Z,13.39
2022-12-31T11:59:43.672Z,13.32
2022-12-31T12:02:30.054Z,13.29
2022-12-31T12:05:05.024Z,13.21
2022-12-31T12:07:36.802Z,13.29
2022-12-31T12:10:14.841Z,13.30
2022-12-31T12:12:42.805Z,13.29
2022-12-31T12:15:11.324Z,13.27
2022-12-31T12:17:39.235Z,13.29
2022-12-31T12:20:19.667Z,13.28
2022-12-31T12:22:51.464Z,13.30
2022-12-31T12:25:21.296Z,13.31
2022-12-31T12:27:48.400Z,13.26
2022-12-31T12:30:21.667Z,13.26
2022-12-31T12:32:57.396Z,13.30
2022-12-31T12:35:26.804Z,13.32
2022-12-31T12:38:15.949Z,13.41
2022-12-31T12:40:59.342Z,13.44
2022-12-31T12:43:31.791Z,13.41
2022-12-31T12:46:26.133Z,13.42
2022-12-31T12:48:58.145Z,13.49
2022-12-31T12:51:24.608Z,13.53
2022-12-31T12:54:11.320Z,13.47
2022-12-31T12:57:00.569Z,13.59
2022-12-31T13:00:07.537Z,13.51
2022-12-31T13:02:54.969Z,13.55
2022-12-31T13:05:31.892Z,13.57
2022-12-31T13:08:10.554Z,13.58
2022-12-31T13:11:01.304Z,13.54
2022-12-31T13:13:49.587Z,13.47
2022-12-31T13:16:37.998Z,13.56
2022-12-31T13:19:29.518Z,13.52
2022-12-31T13:22:29.760Z,13.55
2022-12-31T13:25:08.081Z,13.56
2022-12-31T13:27:37.684Z,13.50
2022-12-31T13:30:14.734Z,13.54
2022-12-31T13:32:46.094Z,13.53
2022-12-31T13:35:24.514Z,13.51
2022-12-31T13:38:04.811Z,13.51
2022-12-31T13:40:48.240Z,13.45
2022-12-31T13:43:35.211Z,13.46
2022-12-31T13:46:22.403Z,13.44
2022-12-31T13:48:54.507Z,13.42
2022-12-31T13:51:34.134Z,13.39
2022-12-31T13:54:17.901Z,13.37
2022-12-31T13:56:46.020Z,13.30
2022-12-31T13:59:20.515Z,13.34
2022-12-31T14:01:58.861Z,13.32
2022-12-31T14:04:43.383Z,13.30
2022-12-31T14:07:26.706Z,13.28
2022-12-31T14:09:58.435Z,13.25
2022-12-31T14:12:30.511Z,13.21
2022-12-31T14:15:03.009Z,13.23
2022-12-31T14:17:44.115Z,13.15
2022-12-31T14:20:39.829Z,13.20
2022-12-31T14:23:24.535Z,13.18
2022-12-31T14:26:05.932Z,13.13
2022-12-31T14:28:47.101Z,13.13
2022-12-31T14:31:30.000Z,13.12
2022-12-31T14:33:59.230Z,13.08
2022-12-31T14:36:34.328Z,13.12
2022-12-31T14:39:10.447Z,13.10
2022-12-31T14:41:51.071Z,13.09
2022-12-31T14:44:58.920Z,13.05
2022-12-31T14:47:56.610Z,13.05
2022-12-31T14:50:26.288Z,13.01
2022-12-31T14:53:07.894Z,12.99
2022-12-31T14:55:35.870Z,12.96
2022-12-31T14:58:28.669Z,12.99
2022-12-31T15:01:09.033Z,12.91
2022-12-31T15:03:44.967Z,12.96
2022-12-31T15:06:35.161Z,12.91
2022-12-31T15:09:23.204Z,12.93
2022-12-31T15:12:21.532Z,12.90
2022-12-31T15:14:57.794Z,12.84
2022-12-31T15:17:33.395Z,12.88
2022-12-31T15:20:24.539Z,12.87
2022-12-31T15:22:53.385Z,12.81
2022-12-31T15:25:19.827Z,12.85
2022-12-31T15:27:47.439Z,12.81
2022-12-31T15:30:37.626Z,12.82
2022-12-31T15:33:16.849Z,12.79
2022-12-31T15:35:47.384Z,12.81
2022-12-31T15:38:13.863Z,12.82
2022-12-31T15:40:49.448Z,12.81
2022-12-31T15:43:24.997Z,12.78
2022-12-31T15:45:54.215Z,12.74
2022-12-31T15:48:30.898Z,12.73
2022-12-31T15:51:00.257Z,12.73
2022-12-31T15:53:32.208Z,12.65
2022-12-31T15:56:00.507Z,12.66
2022-12-31T15:58:31.782Z,12.67
2022-12-31T16:01:15.580Z,12.66
2022-12-31T16:03:54.427Z,12.62
2022-12-31T16:06:21.317Z,12.58
2022-12-31T16:08:49.597Z,12.56
2022-12-31T16:11:17.345Z,12.54
2022-12-31T16:13:50.687Z,12.49
2022-12-31T16:16:31.954Z,12.49
2022-12-31T16:18:59.065Z,12.45
2022-12-31T16:21:37.624Z,12.50
2022-12-31T16:24:07.127Z,12.44
2022-12-31T16:26:49.642Z,12.47
2022-12-31T16:29:19.123Z,12.41
2022-12-31T16:31:47.338Z,12.42
2022-12-31T16:34:17.699Z,12.42
2022-12-31T16:37:02.304Z,12.40
2022-12-31T16:39:39.502Z,12.45
2022-12-31T16:42:20.869Z,12.41
2022-12-31T16:44:48.805Z,12.39
2022-12-31T16:47:20.294Z,12.44
2022-12-31T16:49:52.523Z,12.45
2022-12-31T16:52:30.687Z,12.40
2022-12-31T16:54:57.655Z,12.43
2022-12-31T16:57:29.110Z,12.44
2022-12-31T17:00:03.107Z,12.41
2022-12-31T17:02:44.233Z,12.46
2022-12-31T17:05:25.898Z,12.48
2022-12-31T17:07:53.022Z,12.51
2022-12-31T17:10:36.503Z,12.51
2022-12-31T17:13:27.588Z,12.55
2022-12-31T17:15:56.885Z,12.52
2022-12-31T17:18:27.208Z,12.57
2022-12-31T17:20:55.161Z,12.57
2022-12-31T17:23:34.145Z,12.61
2022-12-31T17:26:07.856Z,12.58
2022-12-31T17:28:45.625Z,12.65
2022-12-31T17:31:36.558Z,12.59
2022-12-31T17:34:12.217Z,12.64
2022-12-31T17:36:40.686Z,12.63
2022-12-31T17:39:22.916Z,12.64
2022-12-31T17:41:56.151Z,12.65
2022-12-31T17:44:28.094Z,12.57
2022-12-31T17:46:54.765Z,12.63
2022-12-31T17:49:27.222Z,12.60
2022-12-31T17:51:53.915Z,12.64
2022-12-31T17:54:20.489Z,12.64
2022-12-31T17:56:47.320Z,12.66
2022-12-31T17:59:23.247Z,12.63
2022-12-31T18:01:50.166Z,12.67
2022-12-31T18:04:19.072Z,12.71
2022-12-31T18:06:45.590Z,12.76
2022-12-31T18:09:12.307Z,12.79
2022-12-31T18:11:40.358Z,12.82
2022-12-31T18:14:07.370Z,12.80
2022-12-31T18:16:34.017Z,12.86
2022-12-31T18:19:01.220Z,12.85
2022-12-31T18:21:30.720Z,12.92
2022-12-31T18:26:24.118Z,12.96
2022-12-31T18:28:51.352Z,12.99
2022-12-31T18:31:27.092Z,13.01
2022-12-31T18:33:55.819Z,13.00
2022-12-31T18:36:24.104Z,13.01
2022-12-31T18:38:50.914Z,13.02
2022-12-31T18:41:28.949Z,13.04
2022-12-31T18:43:56.086Z,12.99
2022-12-31T18:46:24.185Z,13.01
2022-12-31T18:48:50.801Z,13.04
2022-12-31T18:51:26.488Z,13.06
2022-12-31T18:53:57.981Z,13.04
2022-12-31T18:56:25.243Z,13.05
2022-12-31T18:58:52.266Z,13.11
2022-12-31T19:01:37.838Z,13.14
2022-12-31T19:04:11.117Z,13.17
2022-12-31T19:06:37.633Z,13.21
2022-12-31T19:09:13.236Z,13.18
2022-12-31T19:11:50.899Z,13.26
2022-12-31T19:14:21.590Z,13.30
2022-12-31T19:16:48.922Z,13.30
2022-12-31T19:19:15.476Z,13.28
2022-12-31T19:21:42.828Z,13.35
2022-12-31T19:24:19.023Z,13.34
2022-12-31T19:26:45.535Z,13.36
2022-12-31T19:29:23.393Z,13.38
2022-12-31T19:31:50.461Z,13.44
2022-12-31T19:34:17.066Z,13.40
2022-12-31T19:36:44.419Z,13.46
2022-12-31T19:39:17.389Z,13.47
2022-12-31T19:41:44.724Z,13.49
2022-12-31T19:44:19.434Z,13.49
2022-12-31T19:46:46.914Z,13.49
2022-12-31T19:49:14.662Z,13.50
2022-12-31T19:51:42.248Z,13.43
2022-12-31T19:54:10.562Z,13.46
2022-12-31T19:56:37.581Z,13.43
2022-12-31T19:59:09.430Z,13.51
2022-12-31T20:01:36.222Z,13.44
2022-12-31T20:04:02.820Z,13.47
2022-12-31T20:06:29.288Z,13.48
2022-12-31T20:08:55.804Z,13.46
2022-12-31T20:11:24.114Z,13.42
2022-12-31T20:13:53.520Z,13.42
2022-12-31T20:16:23.279Z,13.39
2022-12-31T20:18:50.579Z,13.37
2022-12-31T20:21:20.593Z,13.37
2022-12-31T20:23:48.517Z,13.32
2022-12-31T20:26:15.492Z,13.31
2022-12-31T20:28:42.043Z,13.28
2022-12-31T20:31:15.268Z,13.22
2022-12-31T20:33:42.122Z,13.19
2022-12-31T20:36:10.716Z,13.15
2022-12-31T20:38:37.360Z,13.13
2022-12-31T20:41:04.997Z,13.08
2022-12-31T20:43:32.604Z,13.03
2022-12-31T20:45:59.792Z,13.07
2022-12-31T20:48:26.349Z,13.04
2022-12-31T20:50:58.947Z,13.01
2022-12-31T20:53:25.553Z,12.89
2022-12-31T20:55:52.120Z,12.95
2022-12-31T20:58:18.750Z,12.94
2022-12-31T21:00:49.560Z,12.92
2022-12-31T21:03:53.827Z,12.86
2022-12-31T21:06:05.170Z,12.83
2022-12-31T21:08:34.983Z,12.84
2022-12-31T21:11:02.499Z,12.81
2022-12-31T21:13:29.272Z,12.77
2022-12-31T21:15:56.023Z,12.75
2022-12-31T21:18:23.271Z,12.72
2022-12-31T21:20:51.629Z,12.77
2022-12-31T21:23:20.014Z,12.71
2022-12-31T21:25:50.404Z,12.71
2022-12-31T21:28:17.031Z,12.70
2022-12-31T21:30:43.595Z,12.66
2022-12-31T21:33:10.167Z,12.69
2022-12-31T21:35:48.618Z,12.65
2022-12-31T21:38:19.924Z,12.66
2022-12-31T21:40:46.811Z,12.64
2022-12-31T21:43:16.556Z,12.58
2022-12-31T21:45:43.695Z,12.57
2022-12-31T21:48:21.276Z,12.49
2022-12-31T21:50:49.939Z,12.51
2022-12-31T21:53:23.663Z,12.46
2022-12-31T21:56:11.390Z,12.48
2022-12-31T21:59:23.015Z,12.47
2022-12-31T22:02:07.908Z,12.44
2022-12-31T22:07:20.911Z,12.38
2022-12-31T22:09:47.410Z,12.42
2022-12-31T22:12:13.953Z,12.33
2022-12-31T22:15:15.102Z,12.41
2022-12-31T22:17:27.490Z,12.36
2022-12-31T22:20:25.207Z,12.26
2022-12-31T22:22:40.353Z,12.36
2022-12-31T22:25:07.171Z,12.35
2022-12-31T22:27:33.646Z,12.35
2022-12-31T22:30:00.226Z,12.30
2022-12-31T22:32:26.742Z,12.32
2022-12-31T22:34:53.258Z,12.35
2022-12-31T22:37:55.142Z,12.35
2022-12-31T22:40:06.541Z,12.33
2022-12-31T22:42:33.022Z,12.30
2022-12-31T22:44:59.499Z,12.25
2022-12-31T22:47:26.082Z,12.21
2022-12-31T22:49:52.591Z,12.26
2022-12-31T22:52:19.104Z,12.24
2022-12-31T22:54:45.570Z,12.27
2022-12-31T22:57:17.801Z,12.12
2022-12-31T22:59:46.558Z,12.07
2022-12-31T23:02:13.089Z,12.21
2022-12-31T23:04:39.971Z,12.23
2022-12-31T23:07:07.532Z,12.05
2022-12-31T23:09:52.624Z,12.27
2022-12-31T23:12:19.171Z,12.20
2022-12-31T23:15:04.358Z,12.26
2022-12-31T23:17:49.211Z,12.21
2022-12-31T23:20:38.161Z,12.27
2022-12-31T23:23:09.794Z,12.29
2022-12-31T23:25:43.207Z,12.30
2022-12-31T23:28:13.638Z,12.29
2022-12-31T23:30:40.885Z,12.29
2022-12-31T23:33:08.776Z,12.25
2022-12-31T23:35:35.384Z,12.27
2022-12-31T23:38:01.864Z,12.30
2022-12-31T23:40:34.461Z,12.31
2022-12-31T23:43:05.434Z,12.36
2022-12-31T23:45:33.639Z,12.37
2022-12-31T23:48:00.369Z,12.42
2022-12-31T23:50:27.261Z,12.43
2022-12-31T23:52:54.121Z,12.44
2022-12-31T23:55:20.970Z,12.35
2022-12-31T23:57:47.461Z,12.43
